Time;durP1;ratioP1;P1;durP2;ratioP2;P2;SDS_P1;SDS_P2;PMS_P1;PMS_P2;Temp;Humidity;BMP_temperature;BMP_pressure;BME280_temperature;BME280_humidity;BME280_pressure;Samples;Min_cycle;Max_cycle;Signal;HPM_P1;HPM_P2
2022/04/25 00:00:09;;;;;;;10.35;2.70;;;13.50;99.90;;;;;;5019087;28;20079;-74
2022/04/25 00:02:36;;;;;;;10.65;3.08;;;13.50;99.90;;;;;;5035749;28;20068;-73
2022/04/25 00:05:02;;;;;;;11.18;2.88;;;13.50;99.90;;;;;;5024195;28;20041;-73
2022/04/25 00:07:29;;;;;;;8.82;3.13;;;13.40;99.90;;;;;;5041317;28;20053;-73
2022/04/25 00:09:55;;;;;;;10.10;3.25;;;13.40;99.90;;;;;;5026850;28;20041;-73
2022/04/25 00:12:22;;;;;;;10.02;3.08;;;13.50;99.90;;;;;;5036662;28;20515;-73
2022/04/25 00:14:48;;;;;;;9.75;3.00;;;13.40;99.90;;;;;;5021149;28;20032;-72
2022/04/25 00:17:16;;;;;;;8.27;2.92;;;13.30;99.90;;;;;;5038565;28;20048;-73
2022/04/25 00:19:42;;;;;;;9.65;3.00;;;13.20;99.90;;;;;;5021316;28;20396;-74
2022/04/25 00:22:08;;;;;;;7.15;3.10;;;13.20;99.90;;;;;;5039994;28;20055;-73
2022/04/25 00:24:34;;;;;;;6.20;2.90;;;13.20;99.90;;;;;;5039948;28;20053;-73
2022/04/25 00:26:59;;;;;;;7.93;3.20;;;13.10;99.90;;;;;;5041064;28;20041;-73
2022/04/25 00:29:26;;;;;;;7.65;3.03;;;13.00;99.90;;;;;;5018658;28;20397;-73
2022/04/25 00:31:52;;;;;;;10.18;3.28;;;13.00;99.90;;;;;;5023602;28;20060;-74
2022/04/25 00:34:18;;;;;;;10.85;3.70;;;13.10;99.90;;;;;;5018297;28;20407;-73
2022/04/25 00:36:44;;;;;;;9.10;3.28;;;13.10;99.90;;;;;;5028028;28;20414;-73
2022/04/25 00:39:11;;;;;;;9.20;3.53;;;13.00;99.90;;;;;;5025052;28;20033;-73
2022/04/25 00:41:37;;;;;;;8.55;3.25;;;13.00;99.90;;;;;;5041030;28;20041;-72
2022/04/25 00:44:03;;;;;;;8.18;3.72;;;13.10;99.90;;;;;;5026626;28;20107;-73
2022/04/25 00:46:29;;;;;;;9.20;3.60;;;13.00;99.90;;;;;;5020965;28;20084;-73
2022/04/25 00:48:56;;;;;;;7.88;3.40;;;13.00;99.90;;;;;;5039108;28;20049;-72
2022/04/25 00:51:22;;;;;;;12.52;3.80;;;13.00;99.90;;;;;;5035919;28;21134;-73
2022/04/25 00:53:48;;;;;;;9.35;3.20;;;12.90;99.90;;;;;;5007194;28;20063;-74
2022/04/25 00:56:17;;;;;;;11.25;4.05;;;12.90;99.90;;;;;;5014158;28;20529;-74
2022/04/25 00:58:46;;;;;;;9.18;3.08;;;12.90;99.90;;;;;;5042717;28;20087;-73
2022/04/25 01:01:13;;;;;;;7.68;3.15;;;12.90;99.90;;;;;;5021536;28;20503;-74
2022/04/25 01:03:39;;;;;;;8.95;3.30;;;12.90;99.90;;;;;;5038994;28;20068;-73
2022/04/25 01:06:05;;;;;;;9.25;2.88;;;12.80;99.90;;;;;;5017225;28;20071;-73
2022/04/25 01:08:34;;;;;;;10.43;3.08;;;12.70;99.90;;;;;;5040875;28;20049;-73
2022/04/25 01:11:02;;;;;;;9.80;3.47;;;12.70;99.90;;;;;;5019917;28;20034;-73
2022/04/25 01:13:28;;;;;;;9.90;3.17;;;12.70;99.90;;;;;;5024971;28;20060;-73
2022/04/25 01:15:54;;;;;;;9.45;3.40;;;12.70;99.90;;;;;;5044326;28;20129;-76
2022/04/25 01:18:21;;;;;;;9.13;3.17;;;12.70;99.90;;;;;;5026832;28;20033;-74
2022/04/25 01:20:48;;;;;;;11.60;3.40;;;12.70;99.90;;;;;;5043459;28;20038;-73
2022/04/25 01:28:54;;;;;;;9.23;3.53;;;12.60;99.90;;;;;;5047311;28;20539;-73
2022/04/25 01:31:21;;;;;;;8.48;2.85;;;12.60;99.90;;;;;;5036652;28;20034;-73
2022/04/25 01:33:47;;;;;;;9.85;3.42;;;12.60;99.90;;;;;;5021192;28;20129;-72
2022/04/25 01:36:13;;;;;;;8.45;2.83;;;12.50;99.90;;;;;;5020483;28;20136;-72
2022/04/25 01:38:39;;;;;;;8.90;2.78;;;12.50;99.90;;;;;;5026955;28;20029;-72
2022/04/25 01:41:05;;;;;;;8.90;2.67;;;12.50;99.90;;;;;;5021735;28;20044;-73
2022/04/25 01:43:37;;;;;;;10.18;3.08;;;12.40;99.90;;;;;;5020673;28;20037;-72
2022/04/25 01:46:03;;;;;;;9.68;2.95;;;12.40;99.90;;;;;;5026044;28;20477;-73
2022/04/25 01:48:31;;;;;;;12.95;2.70;;;12.40;99.90;;;;;;5022937;28;20029;-73
2022/04/25 01:50:57;;;;;;;7.50;2.88;;;12.50;99.90;;;;;;5022624;28;20034;-73
2022/04/25 01:53:23;;;;;;;6.63;2.83;;;12.50;99.90;;;;;;5027705;28;20053;-73
2022/04/25 01:55:50;;;;;;;9.90;2.70;;;12.50;99.90;;;;;;5022014;28;20372;-73
2022/04/25 01:58:17;;;;;;;5.82;2.55;;;12.40;99.90;;;;;;5027285;28;20597;-74
2022/04/25 02:00:44;;;;;;;9.52;3.25;;;12.40;99.90;;;;;;5026645;28;20037;-73
2022/04/25 02:03:13;;;;;;;5.38;2.72;;;12.30;99.90;;;;;;5020450;28;20048;-73
2022/04/25 02:05:41;;;;;;;9.10;2.55;;;12.40;99.90;;;;;;5026637;28;20042;-73
2022/04/25 02:08:07;;;;;;;6.72;2.90;;;12.50;99.90;;;;;;5019813;28;20725;-73
2022/04/25 02:10:33;;;;;;;6.65;2.50;;;12.50;99.90;;;;;;5020466;28;20069;-73
2022/04/25 02:12:59;;;;;;;8.23;3.05;;;12.50;99.90;;;;;;5024656;28;20124;-72
2022/04/25 02:15:26;;;;;;;7.20;2.58;;;12.50;99.90;;;;;;5020469;28;20026;-73
2022/04/25 02:17:52;;;;;;;9.00;2.60;;;12.40;99.90;;;;;;5021525;28;20022;-73
2022/04/25 02:20:18;;;;;;;7.15;2.15;;;12.40;99.90;;;;;;5021333;28;20049;-73
2022/04/25 02:22:44;;;;;;;6.20;2.22;;;12.40;99.90;;;;;;5025124;28;20396;-73
2022/04/25 02:25:10;;;;;;;8.10;2.78;;;12.40;99.90;;;;;;5019337;28;20042;-73
2022/04/25 02:27:39;;;;;;;7.03;2.22;;;12.30;99.90;;;;;;5019470;28;20115;-73
2022/04/25 02:30:05;;;;;;;6.03;2.00;;;12.30;99.90;;;;;;5022546;28;20382;-73
2022/04/25 02:32:31;;;;;;;6.80;1.88;;;12.40;99.90;;;;;;5022380;28;20068;-73
2022/04/25 02:34:59;;;;;;;4.53;1.60;;;12.40;99.90;;;;;;5024796;28;20038;-73
2022/04/25 02:37:25;;;;;;;6.03;1.90;;;12.50;99.90;;;;;;5021183;28;20041;-73
2022/04/25 02:39:51;;;;;;;5.03;1.80;;;12.50;99.90;;;;;;5020128;28;20041;-73
2022/04/25 02:42:18;;;;;;;6.03;1.80;;;12.60;99.90;;;;;;5023676;28;20140;-73
2022/04/25 02:44:44;;;;;;;4.70;1.85;;;12.60;99.90;;;;;;5025950;28;20124;-73
2022/04/25 02:47:11;;;;;;;4.00;1.63;;;12.50;99.90;;;;;;5015003;28;20116;-73
2022/04/25 02:49:38;;;;;;;5.28;1.92;;;12.50;99.90;;;;;;5022199;28;20068;-72
2022/04/25 02:52:04;;;;;;;5.95;1.80;;;12.50;99.90;;;;;;5022566;28;20116;-73
2022/04/25 02:54:30;;;;;;;8.25;2.08;;;12.50;99.90;;;;;;5026201;28;20140;-73
2022/04/25 02:56:56;;;;;;;6.40;1.70;;;12.50;99.90;;;;;;5041547;28;20140;-73
2022/04/25 02:59:22;;;;;;;5.40;1.88;;;12.40;99.90;;;;;;5040049;28;20128;-73
2022/04/25 03:01:48;;;;;;;4.55;2.00;;;12.40;99.90;;;;;;5024532;28;20041;-73
2022/04/25 03:04:14;;;;;;;5.72;1.83;;;12.30;99.90;;;;;;5040151;28;20041;-73
2022/04/25 03:06:40;;;;;;;2.72;1.77;;;12.30;99.90;;;;;;5026866;28;20225;-74
2022/04/25 03:09:05;;;;;;;4.72;1.77;;;12.30;99.90;;;;;;5023382;28;20088;-73
2022/04/25 03:11:34;;;;;;;3.22;1.45;;;12.40;99.90;;;;;;5007923;28;20045;-72
2022/04/25 03:14:00;;;;;;;5.80;2.28;;;12.30;99.90;;;;;;5023299;28;20408;-73
2022/04/25 03:16:28;;;;;;;5.22;2.25;;;12.20;99.90;;;;;;5021341;28;20057;-73
2022/04/25 03:18:54;;;;;;;4.63;2.05;;;12.20;99.90;;;;;;5021505;28;20543;-73
2022/04/25 03:21:20;;;;;;;7.05;2.10;;;12.20;99.90;;;;;;5017916;28;20136;-73
2022/04/25 03:23:46;;;;;;;4.03;2.10;;;12.10;99.90;;;;;;5020246;28;20132;-74
2022/04/25 03:26:12;;;;;;;4.82;2.17;;;12.10;99.90;;;;;;5018358;28;20033;-73
2022/04/25 03:28:38;;;;;;;7.40;1.90;;;12.10;99.90;;;;;;5018930;28;20469;-73
2022/04/25 03:31:07;;;;;;;4.20;2.03;;;12.00;99.90;;;;;;5021009;28;20034;-73
2022/04/25 03:33:37;;;;;;;4.68;1.92;;;12.00;99.90;;;;;;5017247;28;20096;-73
2022/04/25 03:36:04;;;;;;;6.57;2.33;;;12.00;99.90;;;;;;5018830;28;20032;-73
2022/04/25 03:38:30;;;;;;;4.25;1.98;;;12.00;99.90;;;;;;5019947;28;20040;-73
2022/04/25 03:40:57;;;;;;;3.58;1.92;;;12.10;99.90;;;;;;5007712;28;20128;-73
2022/04/25 03:43:24;;;;;;;3.15;1.73;;;12.00;99.90;;;;;;5015041;28;20044;-73
2022/04/25 03:45:50;;;;;;;5.30;2.10;;;12.00;99.90;;;;;;5021305;28;20574;-73
2022/04/25 03:48:16;;;;;;;4.95;1.90;;;12.00;99.90;;;;;;5019961;28;20766;-73
2022/04/25 03:50:42;;;;;;;3.80;1.80;;;12.00;99.90;;;;;;5022191;28;20100;-73
2022/04/25 03:53:11;;;;;;;4.25;1.80;;;11.90;99.90;;;;;;5019612;28;20067;-73
2022/04/25 03:58:22;;;;;;;4.43;1.73;;;11.90;99.90;;;;;;5019480;28;20047;-73
2022/04/25 04:00:49;;;;;;;2.97;1.80;;;11.90;99.90;;;;;;5017275;28;20046;-72
2022/04/25 04:03:17;;;;;;;3.47;1.65;;;11.90;99.90;;;;;;5016863;28;20373;-74
2022/04/25 04:05:45;;;;;;;4.05;1.77;;;11.90;99.90;;;;;;5023637;28;20744;-73
2022/04/25 04:08:11;;;;;;;5.00;1.80;;;11.90;99.90;;;;;;5015400;28;20037;-73
2022/04/25 04:10:37;;;;;;;4.03;1.67;;;11.80;99.90;;;;;;5019362;28;20045;-73
2022/04/25 04:13:05;;;;;;;6.55;2.10;;;11.70;99.90;;;;;;5024898;28;20049;-73
2022/04/25 04:15:31;;;;;;;5.68;2.10;;;11.70;99.90;;;;;;5020930;28;20108;-72
2022/04/25 04:17:58;;;;;;;5.18;2.10;;;11.80;99.90;;;;;;5018019;28;20045;-74
2022/04/25 04:20:25;;;;;;;3.17;1.88;;;11.80;99.90;;;;;;5022952;28;20034;-73
2022/04/25 04:22:51;;;;;;;5.43;2.10;;;11.70;99.90;;;;;;5013783;28;20122;-73
2022/04/25 04:25:16;;;;;;;4.30;1.80;;;11.70;99.90;;;;;;5016773;28;20460;-73
2022/04/25 04:27:43;;;;;;;4.13;2.08;;;11.70;99.90;;;;;;5019658;28;20041;-73
2022/04/25 04:30:11;;;;;;;5.72;1.88;;;11.70;99.90;;;;;;5016657;28;20038;-74
2022/04/25 04:32:40;;;;;;;8.70;4.50;;;11.70;99.90;;;;;;5019413;28;20052;-73
2022/04/25 04:35:11;;;;;;;4.35;1.88;;;11.70;99.90;;;;;;5017906;28;20048;-73
2022/04/25 04:37:38;;;;;;;3.00;1.70;;;11.80;99.90;;;;;;5014525;28;20482;-74
2022/04/25 04:42:51;;;;;;;4.68;1.75;;;11.80;99.90;;;;;;5021691;28;20048;-73
2022/04/25 04:45:17;;;;;;;4.65;1.70;;;11.80;99.90;;;;;;5023056;28;20176;-75
2022/04/25 04:47:43;;;;;;;5.47;1.70;;;11.80;99.90;;;;;;5031843;28;20541;-74
2022/04/25 04:50:15;;;;;;;4.38;1.90;;;11.80;99.90;;;;;;5019933;28;20076;-74
2022/04/25 04:52:52;;;;;;;4.40;2.20;;;11.80;99.90;;;;;;5022017;28;20064;-73
2022/04/25 04:55:18;;;;;;;6.13;1.85;;;11.80;99.90;;;;;;5001745;28;20030;-74
2022/04/25 04:57:45;;;;;;;3.72;1.92;;;11.80;99.90;;;;;;5020249;28;20133;-73
2022/04/25 05:00:16;;;;;;;4.18;2.00;;;11.80;99.90;;;;;;5020093;28;20065;-74
2022/04/25 05:02:43;;;;;;;6.40;1.75;;;11.80;99.90;;;;;;5017269;28;20053;-73
2022/04/25 05:05:10;;;;;;;4.57;1.83;;;11.90;99.90;;;;;;5017738;28;20049;-74
2022/04/25 05:07:36;;;;;;;11.85;6.32;;;11.90;99.90;;;;;;5022673;28;20472;-73
2022/04/25 05:10:08;;;;;;;5.50;3.50;;;11.90;99.90;;;;;;5007303;28;20093;-74
2022/04/25 05:12:51;;;;;;;4.13;2.30;;;11.90;99.90;;;;;;5023314;28;20044;-73
2022/04/25 05:15:20;;;;;;;7.05;2.30;;;11.90;99.90;;;;;;5038705;28;20045;-74
2022/04/25 05:17:49;;;;;;;4.07;1.60;;;11.90;99.90;;;;;;5040467;28;20044;-74
2022/04/25 05:20:17;;;;;;;4.75;2.20;;;12.00;99.90;;;;;;5007433;28;20536;-74
2022/04/25 05:22:46;;;;;;;4.65;1.90;;;12.10;99.90;;;;;;5024575;28;20048;-74
2022/04/25 05:25:24;;;;;;;4.53;2.05;;;12.20;99.90;;;;;;5024844;28;20049;-74
2022/04/25 05:27:52;;;;;;;4.38;1.98;;;12.20;99.90;;;;;;5020587;28;20049;-74
2022/04/25 05:30:19;;;;;;;4.22;1.83;;;12.20;99.90;;;;;;5025814;28;20048;-74
2022/04/25 05:32:50;;;;;;;7.88;3.78;;;12.30;99.90;;;;;;5020635;28;20733;-75
2022/04/25 05:35:18;;;;;;;3.80;2.10;;;12.40;99.90;;;;;;5042474;28;20150;-73
2022/04/25 05:37:44;;;;;;;3.67;1.70;;;12.40;99.90;;;;;;5038286;28;20046;-74
2022/04/25 05:40:12;;;;;;;4.20;2.00;;;12.50;99.90;;;;;;5039115;28;20056;-74
2022/04/25 05:42:40;;;;;;;3.60;1.70;;;12.60;99.90;;;;;;5023781;28;20072;-73
2022/04/25 05:45:08;;;;;;;4.15;1.63;;;12.70;99.90;;;;;;5036818;28;20585;-74
2022/04/25 05:47:34;;;;;;;4.75;2.00;;;12.80;99.90;;;;;;5039002;28;20041;-73
2022/04/25 05:52:47;;;;;;;5.40;1.90;;;12.90;99.90;;;;;;5041198;28;20407;-73
2022/04/25 05:55:13;;;;;;;4.70;2.10;;;13.10;99.90;;;;;;5033552;28;20080;-73
2022/04/25 05:57:40;;;;;;;4.60;2.00;;;13.10;99.90;;;;;;5023817;28;20081;-73
2022/04/25 06:00:09;;;;;;;3.88;1.98;;;13.10;99.90;;;;;;5023093;28;20094;-74
2022/04/25 06:02:39;;;;;;;5.20;2.38;;;13.20;99.90;;;;;;5031108;28;20037;-74
2022/04/25 06:05:06;;;;;;;4.68;2.25;;;13.20;99.90;;;;;;5024315;28;20841;-73
2022/04/25 06:07:33;;;;;;;4.47;2.10;;;13.30;99.90;;;;;;5026364;28;20487;-73
2022/04/25 06:10:01;;;;;;;4.43;2.25;;;13.30;99.90;;;;;;5032441;28;20034;-75
2022/04/25 06:12:29;;;;;;;4.88;2.10;;;13.40;99.90;;;;;;5048325;28;20033;-74
2022/04/25 06:15:00;;;;;;;4.13;2.30;;;13.40;99.90;;;;;;5021186;28;20045;-73
2022/04/25 06:17:26;;;;;;;4.25;2.08;;;13.50;99.90;;;;;;5040438;28;20033;-72
2022/04/25 06:19:53;;;;;;;4.18;1.90;;;13.60;99.90;;;;;;5041707;28;20045;-73
2022/04/25 06:22:20;;;;;;;3.50;2.50;;;13.70;99.90;;;;;;5041743;28;20519;-74
2022/04/25 06:24:47;;;;;;;9.15;2.22;;;13.70;99.90;;;;;;5042014;28;20389;-74
2022/04/25 06:27:14;;;;;;;5.20;2.20;;;13.80;99.90;;;;;;5043801;28;20043;-74
2022/04/25 06:29:42;;;;;;;5.28;2.17;;;13.90;99.90;;;;;;5038880;28;20040;-74
2022/04/25 06:32:09;;;;;;;3.20;1.90;;;14.00;99.90;;;;;;5022017;28;20040;-74
2022/04/25 06:34:35;;;;;;;4.22;2.17;;;14.10;99.90;;;;;;5017997;28;20044;-74
2022/04/25 06:37:01;;;;;;;7.65;2.00;;;14.20;99.90;;;;;;5026682;28;20041;-73
2022/04/25 06:39:27;;;;;;;4.30;1.80;;;14.20;99.90;;;;;;5037143;28;20041;-74
2022/04/25 06:41:53;;;;;;;5.25;1.98;;;14.30;99.90;;;;;;5025640;28;20053;-74
2022/04/25 06:44:19;;;;;;;5.18;2.00;;;14.30;99.90;;;;;;5027529;28;20136;-73
2022/04/25 06:46:45;;;;;;;6.32;2.03;;;14.40;99.90;;;;;;5028324;28;20126;-74
2022/04/25 06:49:20;;;;;;;13.35;2.70;;;14.50;99.90;;;;;;5025803;28;20049;-74
2022/04/25 06:51:47;;;;;;;4.47;1.60;;;14.50;99.90;;;;;;5029855;28;20246;-74
2022/04/25 06:54:16;;;;;;;5.70;2.00;;;14.70;99.90;;;;;;5038222;28;20063;-74
2022/04/25 06:56:42;;;;;;;6.93;2.03;;;14.70;99.90;;;;;;5026559;28;20115;-74
2022/04/25 06:59:08;;;;;;;4.20;2.00;;;14.80;99.90;;;;;;5038864;28;20052;-74
2022/04/25 07:01:35;;;;;;;3.90;2.17;;;14.90;99.90;;;;;;5041618;28;20059;-74
2022/04/25 07:04:02;;;;;;;6.90;2.20;;;14.90;99.90;;;;;;5028439;28;20053;-74
2022/04/25 07:06:29;;;;;;;6.25;2.45;;;15.00;99.90;;;;;;5027075;28;20040;-74
2022/04/25 07:08:55;;;;;;;3.50;2.00;;;15.00;99.90;;;;;;5041767;28;20060;-74
2022/04/25 07:11:21;;;;;;;7.57;2.40;;;15.10;99.90;;;;;;5041269;28;20052;-74
2022/04/25 07:13:48;;;;;;;5.45;1.83;;;15.20;99.90;;;;;;5041460;28;20041;-73
2022/04/25 07:16:15;;;;;;;7.90;2.60;;;15.20;99.90;;;;;;5038132;28;20033;-74
2022/04/25 07:18:42;;;;;;;8.07;2.10;;;15.30;99.90;;;;;;5043315;28;20444;-74
2022/04/25 07:29:24;;;;;;;4.15;1.85;;;15.50;99.90;;;;;;5029872;28;20044;-74
2022/04/25 07:31:51;;;;;;;5.80;2.15;;;15.60;99.90;;;;;;5029853;28;20688;-73
2022/04/25 07:34:20;;;;;;;4.78;1.88;;;15.60;99.90;;;;;;5018002;28;20406;-75
2022/04/25 07:36:51;;;;;;;4.60;2.33;;;15.70;99.90;;;;;;5022751;28;20021;-73
2022/04/25 07:39:19;;;;;;;4.20;1.95;;;15.80;99.90;;;;;;5020297;28;20099;-74
2022/04/25 07:41:46;;;;;;;7.35;2.35;;;15.90;99.90;;;;;;5016170;28;20038;-73
2022/04/25 07:44:13;;;;;;;7.43;2.25;;;15.90;99.90;;;;;;5018072;28;20776;-74
2022/04/25 07:46:41;;;;;;;4.78;2.38;;;16.00;99.90;;;;;;5024016;28;20061;-74
2022/04/25 07:49:10;;;;;;;6.25;2.05;;;16.00;99.90;;;;;;5018109;28;20034;-75
2022/04/25 07:51:39;;;;;;;43.53;5.65;;;16.10;99.90;;;;;;4993561;28;20584;-72
2022/04/25 07:54:05;;;;;;;8.07;2.30;;;16.20;99.90;;;;;;5009404;28;20040;-72
2022/04/25 07:56:32;;;;;;;5.40;2.22;;;16.20;99.90;;;;;;5008036;28;20116;-71
2022/04/25 07:59:02;;;;;;;11.15;2.47;;;16.30;99.90;;;;;;5003617;28;20048;-73
2022/04/25 08:01:29;;;;;;;8.55;2.00;;;16.30;99.90;;;;;;5024275;28;20033;-72
2022/04/25 08:03:55;;;;;;;7.57;2.08;;;16.40;99.90;;;;;;5023269;28;20106;-71
2022/04/25 08:06:22;;;;;;;7.53;2.03;;;16.40;99.90;;;;;;5033546;28;20041;-72
2022/04/25 08:08:49;;;;;;;5.93;2.45;;;16.60;99.90;;;;;;5026437;28;20537;-72
2022/04/25 08:11:16;;;;;;;8.57;2.28;;;16.70;99.90;;;;;;5018467;28;20032;-73
2022/04/25 08:19:15;;;;;;;9.07;1.95;;;16.90;99.90;;;;;;5014806;28;20091;-72
2022/04/25 08:21:43;;;;;;;6.15;1.90;;;16.90;99.90;;;;;;5020228;28;20053;-72
2022/04/25 08:24:10;;;;;;;4.05;1.80;;;17.00;99.90;;;;;;5010320;28;20051;-73
2022/04/25 08:26:37;;;;;;;7.97;2.28;;;17.10;99.90;;;;;;5008959;28;20512;-71
2022/04/25 08:29:04;;;;;;;5.97;2.10;;;17.10;99.90;;;;;;4995321;28;20045;-73
2022/04/25 08:31:36;;;;;;;4.47;1.90;;;17.20;99.90;;;;;;5012277;28;20034;-72
2022/04/25 08:34:04;;;;;;;6.32;2.08;;;18.80;99.90;;;;;;5024299;28;20046;-72
2022/04/25 08:36:32;;;;;;;5.50;2.00;;;20.50;99.90;;;;;;5022865;28;20657;-72
2022/04/25 08:39:00;;;;;;;5.35;2.00;;;21.80;99.70;;;;;;5027235;28;20381;-72
2022/04/25 08:41:41;;;;;;;9.32;1.98;;;22.60;98.10;;;;;;5026469;28;20038;-72
2022/04/25 08:44:10;;;;;;;6.97;2.30;;;22.90;97.30;;;;;;5009091;28;20037;-72
2022/04/25 08:46:38;;;;;;;8.40;2.05;;;22.10;97.30;;;;;;5008171;28;20500;-71
2022/04/25 08:49:05;;;;;;;5.63;1.92;;;21.90;97.40;;;;;;5004460;28;20420;-72
2022/04/25 08:51:34;;;;;;;8.30;2.42;;;21.10;98.50;;;;;;5008346;28;20063;-72
2022/04/25 08:54:02;;;;;;;6.05;2.38;;;21.00;99.00;;;;;;5012428;28;20045;-71
2022/04/25 08:56:28;;;;;;;8.38;2.50;;;20.60;99.20;;;;;;5008368;28;20033;-72
2022/04/25 08:58:56;;;;;;;6.43;2.22;;;20.70;98.70;;;;;;5019485;28;20500;-71
2022/04/25 09:01:22;;;;;;;5.93;2.03;;;22.30;98.20;;;;;;5027399;28;20043;-72
2022/04/25 09:03:48;;;;;;;6.63;2.40;;;23.30;96.70;;;;;;5026113;28;20071;-72
2022/04/25 09:06:14;;;;;;;5.03;2.03;;;23.70;95.90;;;;;;5022677;28;21495;-72
2022/04/25 09:08:42;;;;;;;7.05;2.00;;;24.40;95.10;;;;;;5015056;28;20057;-72
2022/04/25 09:13:53;;;;;;;7.05;2.00;;;25.30;94.20;;;;;;5025676;28;21149;-72
2022/04/25 09:16:19;;;;;;;10.23;2.03;;;25.80;93.50;;;;;;5020361;28;20034;-72
2022/04/25 09:18:46;;;;;;;5.32;2.00;;;25.90;92.90;;;;;;5036756;28;20040;-72
2022/04/25 09:21:15;;;;;;;6.93;1.70;;;25.20;92.70;;;;;;5012456;28;20041;-72
2022/04/25 09:23:42;;;;;;;6.95;1.85;;;25.30;93.30;;;;;;5026270;28;20037;-73
2022/04/25 09:26:15;;;;;;;5.88;1.92;;;26.10;92.90;;;;;;5017574;28;20584;-72
2022/04/25 09:28:53;;;;;;;4.55;1.60;;;25.90;92.40;;;;;;5026772;28;20036;-72
2022/04/25 09:31:22;;;;;;;9.30;1.77;;;24.90;93.00;;;;;;5020725;28;20033;-72
2022/04/25 09:33:49;;;;;;;6.25;1.40;;;25.10;93.30;;;;;;5002207;28;20189;-71
2022/04/25 09:36:15;;;;;;;4.20;1.38;;;25.80;92.70;;;;;;5022060;28;20480;-72
2022/04/25 09:38:42;;;;;;;7.38;1.98;;;26.30;92.30;;;;;;5025707;28;20492;-71
2022/04/25 09:41:13;;;;;;;3.40;1.45;;;26.10;92.00;;;;;;5028007;28;20562;-72
2022/04/25 09:43:41;;;;;;;6.80;1.88;;;26.60;91.40;;;;;;5029271;28;20115;-72
2022/04/25 09:46:10;;;;;;;9.68;2.05;;;26.30;91.90;;;;;;4998254;28;20037;-72
2022/04/25 09:48:37;;;;;;;8.48;2.00;;;25.90;92.50;;;;;;4999560;28;20129;-71
2022/04/25 09:51:09;;;;;;;13.02;2.88;;;26.10;92.10;;;;;;5025008;28;20037;-73
2022/04/25 09:53:50;;;;;;;15.30;2.70;;;26.10;91.70;;;;;;5027926;28;20038;-72
2022/04/25 09:56:17;;;;;;;9.07;1.85;;;26.30;92.00;;;;;;5010282;28;20396;-72
2022/04/25 09:58:45;;;;;;;5.50;1.70;;;26.60;91.60;;;;;;5011131;28;20034;-72
2022/04/25 10:01:13;;;;;;;4.75;2.00;;;26.80;91.50;;;;;;5009125;28;20131;-72
2022/04/25 10:03:41;;;;;;;7.53;1.73;;;26.80;91.20;;;;;;5008118;28;20042;-73
2022/04/25 10:06:08;;;;;;;6.05;1.92;;;26.60;91.20;;;;;;5009578;28;20044;-72
2022/04/25 10:08:36;;;;;;;7.53;1.98;;;26.50;91.40;;;;;;5012241;28;20037;-73
2022/04/25 10:11:06;;;;;;;26.63;3.20;;;26.80;91.50;;;;;;5007670;28;20042;-72
2022/04/25 10:13:33;;;;;;;10.88;2.35;;;26.80;91.50;;;;;;5007278;28;20045;-72
2022/04/25 10:16:00;;;;;;;6.78;1.80;;;26.70;91.30;;;;;;5009872;28;20060;-73
2022/04/25 10:18:27;;;;;;;8.15;1.98;;;26.30;91.40;;;;;;5008921;28;20034;-73
2022/04/25 10:20:54;;;;;;;8.88;2.00;;;25.00;92.20;;;;;;5005906;28;20034;-73
2022/04/25 10:23:21;;;;;;;19.15;2.78;;;24.40;93.10;;;;;;5005144;28;20140;-72
2022/04/25 10:25:56;;;;;;;19.35;3.28;;;23.90;93.50;;;;;;5012646;28;20092;-72
2022/04/25 10:28:33;;;;;;;19.80;3.72;;;23.20;94.30;;;;;;5009509;28;20484;-72
2022/04/25 10:31:07;;;;;;;11.98;2.80;;;23.10;95.00;;;;;;5008376;28;20041;-74
2022/04/25 10:33:54;;;;;;;47.80;7.18;;;22.70;95.40;;;;;;5026725;28;20166;-72
2022/04/25 10:36:39;;;;;;;19.60;4.03;;;22.40;95.70;;;;;;5001793;28;20036;-72
2022/04/25 10:39:24;;;;;;;9.07;2.17;;;23.30;95.20;;;;;;5037826;28;20040;-72
2022/04/25 10:44:42;;;;;;;6.03;2.05;;;24.30;94.40;;;;;;5027094;28;20195;-72
2022/04/25 10:47:11;;;;;;;7.28;2.00;;;23.50;95.00;;;;;;5021743;28;20033;-72
2022/04/25 10:49:58;;;;;;;11.52;2.20;;;23.20;95.40;;;;;;5025559;28;22870;-72
2022/04/25 10:52:42;;;;;;;13.10;2.33;;;23.50;95.20;;;;;;5027415;28;20730;-73
2022/04/25 10:58:13;;;;;;;52.17;5.85;;;24.10;95.20;;;;;;5002497;28;20488;-73
2022/04/25 11:00:45;;;;;;;182.57;13.23;;;24.10;94.60;;;;;;5007753;28;20091;-75
2022/04/25 11:03:20;;;;;;;64.82;5.45;;;24.30;94.70;;;;;;5029008;28;20052;-72
2022/04/25 11:05:54;;;;;;;52.60;4.70;;;24.30;94.70;;;;;;5014270;28;20055;-73
2022/04/25 11:08:21;;;;;;;22.00;2.97;;;23.60;95.40;;;;;;5009673;28;20120;-72
2022/04/25 11:10:54;;;;;;;13.00;2.35;;;24.00;95.40;;;;;;5026234;28;20588;-72
2022/04/25 11:13:20;;;;;;;96.80;7.78;;;24.40;95.10;;;;;;5021711;28;20087;-73
2022/04/25 11:15:49;;;;;;;16.88;2.30;;;24.90;94.90;;;;;;5027261;28;20043;-72
2022/04/25 11:18:37;;;;;;;105.90;7.80;;;24.70;94.20;;;;;;5022765;28;20038;-74
2022/04/25 11:21:13;;;;;;;16.13;2.97;;;24.00;95.40;;;;;;5005280;28;20409;-72
2022/04/25 11:23:44;;;;;;;43.90;5.30;;;24.00;95.40;;;;;;5008997;28;20041;-73
2022/04/25 11:26:23;;;;;;;19.25;2.58;;;23.90;96.00;;;;;;5007321;28;20050;-74
2022/04/25 11:28:58;;;;;;;30.98;5.03;;;23.90;96.00;;;;;;5009532;28;20038;-72
2022/04/25 11:31:25;;;;;;;11.50;2.45;;;24.10;96.20;;;;;;4994165;28;20037;-72
2022/04/25 11:34:02;;;;;;;71.78;9.70;;;24.10;96.30;;;;;;5007690;28;20044;-72
2022/04/25 11:36:31;;;;;;;5.47;2.00;;;23.90;96.30;;;;;;5013737;28;20084;-72
2022/04/25 11:41:44;;;;;;;13.90;2.65;;;24.90;95.40;;;;;;5021138;28;20111;-72
2022/04/25 11:44:10;;;;;;;14.20;3.00;;;25.00;94.60;;;;;;5026712;28;21423;-72
2022/04/25 11:46:37;;;;;;;17.52;3.10;;;24.60;95.10;;;;;;5008461;28;20374;-72
2022/04/25 11:49:05;;;;;;;10.77;2.20;;;24.90;95.30;;;;;;5023967;28;20094;-72
2022/04/25 11:51:33;;;;;;;9.93;2.50;;;25.50;95.00;;;;;;4997816;28;20108;-71
2022/04/25 11:54:03;;;;;;;9.45;2.80;;;26.10;94.90;;;;;;5003333;28;20045;-72
2022/04/25 11:56:31;;;;;;;21.90;3.63;;;26.20;94.70;;;;;;5028374;28;20041;-73
2022/04/25 11:58:59;;;;;;;11.15;2.78;;;25.40;95.10;;;;;;5009307;28;20065;-73
2022/04/25 12:01:33;;;;;;;8.93;2.55;;;25.30;95.10;;;;;;5002100;28;20034;-72
2022/04/25 12:04:21;;;;;;;11.98;2.75;;;24.90;95.40;;;;;;5005711;28;20516;-73
2022/04/25 12:07:00;;;;;;;10.13;2.97;;;25.30;95.10;;;;;;4998178;28;20411;-72
2022/04/25 12:15:40;;;;;;;9.40;3.08;;;25.70;95.30;;;;;;4995903;28;20048;-73
2022/04/25 12:18:30;;;;;;;7.90;2.83;;;26.00;94.60;;;;;;5006126;28;20498;-72
2022/04/25 12:21:12;;;;;;;8.45;2.80;;;24.80;94.90;;;;;;5019050;28;20041;-72
2022/04/25 12:23:52;;;;;;;5.32;1.85;;;24.70;95.70;;;;;;5025401;28;20594;-72
2022/04/25 12:26:29;;;;;;;8.57;3.30;;;24.60;94.50;;;;;;5019043;28;20052;-72
2022/04/25 12:29:01;;;;;;;13.43;3.22;;;24.40;95.50;;;;;;5021733;28;20048;-72
2022/04/25 12:31:39;;;;;;;7.32;2.40;;;24.40;95.90;;;;;;5001750;28;20034;-72
2022/04/25 12:34:07;;;;;;;10.77;3.05;;;24.70;94.80;;;;;;5008373;28;20098;-72
2022/04/25 12:36:33;;;;;;;8.45;2.72;;;23.80;95.50;;;;;;5019975;28;20033;-72
2022/04/25 12:39:14;;;;;;;7.10;3.40;;;23.10;96.30;;;;;;5005015;28;20057;-72
2022/04/25 12:41:51;;;;;;;9.17;3.10;;;23.40;97.00;;;;;;5026416;28;20033;-74
2022/04/25 12:44:18;;;;;;;8.20;2.90;;;23.90;97.00;;;;;;5026990;28;20053;-73
2022/04/25 12:47:08;;;;;;;7.45;2.80;;;24.40;96.50;;;;;;4997133;28;20099;-73
2022/04/25 12:49:35;;;;;;;5.25;2.30;;;23.50;95.60;;;;;;5025433;28;20131;-72
2022/04/25 12:52:05;;;;;;;7.07;2.78;;;23.60;95.60;;;;;;5038379;28;20037;-73
2022/04/25 12:54:40;;;;;;;7.97;3.30;;;24.30;96.20;;;;;;5003361;28;20050;-73
2022/04/25 12:57:17;;;;;;;8.57;2.63;;;24.30;96.30;;;;;;5020184;28;20144;-71
2022/04/25 12:59:53;;;;;;;4.82;1.88;;;24.50;94.60;;;;;;5015543;28;20060;-72
2022/04/25 13:02:35;;;;;;;2.75;1.40;;;23.50;91.70;;;;;;5020344;28;20041;-73
2022/04/25 13:05:13;;;;;;;6.20;2.10;;;23.50;93.50;;;;;;5007730;28;20073;-71
2022/04/25 13:07:42;;;;;;;7.13;2.15;;;22.40;93.10;;;;;;5007388;28;20025;-73
2022/04/25 13:10:11;;;;;;;9.85;1.70;;;22.50;95.30;;;;;;5030806;28;20045;-73
2022/04/25 13:12:42;;;;;;;10.63;2.65;;;23.30;93.90;;;;;;5011576;28;20140;-72
2022/04/25 13:15:13;;;;;;;14.57;3.30;;;22.70;95.10;;;;;;5050319;28;20090;-73
2022/04/25 13:17:41;;;;;;;9.77;2.70;;;23.60;95.40;;;;;;5035976;28;20049;-72
2022/04/25 13:20:12;;;;;;;7.13;2.30;;;23.30;95.80;;;;;;5030346;28;20289;-74
2022/04/25 13:22:39;;;;;;;8.13;2.80;;;23.50;94.30;;;;;;5019978;28;20051;-73
2022/04/25 13:25:07;;;;;;;7.93;2.78;;;22.50;96.30;;;;;;5014892;28;20044;-73
2022/04/25 13:27:37;;;;;;;9.60;2.55;;;22.50;96.50;;;;;;5025331;28;20041;-73
2022/04/25 13:30:05;;;;;;;8.60;2.90;;;23.00;96.40;;;;;;5008007;28;20041;-73
2022/04/25 13:32:36;;;;;;;7.50;2.90;;;22.50;96.00;;;;;;5023010;28;20987;-76
2022/04/25 13:35:03;;;;;;;8.73;2.63;;;22.80;95.90;;;;;;5026005;28;20060;-74
2022/04/25 13:37:30;;;;;;;9.70;2.58;;;23.30;95.30;;;;;;5026539;28;20052;-73